Time;durP1;ratioP1;P1;durP2;ratioP2;P2;SDS_P1;SDS_P2;PMS_P1;PMS_P2;Temp;Humidity;BMP_temperature;BMP_pressure;BME280_temperature;BME280_humidity;BME280_pressure;Samples;Min_cycle;Max_cycle;Signal;HPM_P1;HPM_P2
2023/06/10 00:01:43;;;;;;;2.30;2.07;;;13.20;99.90;;;;;;4962822;28;20211;-89
2023/06/10 00:04:13;;;;;;;3.27;2.10;;;13.30;99.90;;;;;;4975720;28;20203;-89
2023/06/10 00:06:48;;;;;;;2.47;2.03;;;13.30;99.90;;;;;;4968475;28;20221;-88
2023/06/10 00:09:20;;;;;;;4.27;3.13;;;13.40;99.90;;;;;;4954328;28;20213;-89
2023/06/10 00:11:51;;;;;;;3.63;2.47;;;13.40;99.90;;;;;;4976028;28;20211;-89
2023/06/10 00:14:24;;;;;;;2.53;2.17;;;13.20;99.90;;;;;;4977006;28;20652;-88
2023/06/10 00:16:57;;;;;;;2.30;2.10;;;13.20;99.90;;;;;;4980908;28;20286;-90
2023/06/10 00:19:30;;;;;;;2.93;2.30;;;13.20;99.90;;;;;;4975269;28;20230;-88
2023/06/10 00:22:01;;;;;;;3.00;2.63;;;13.10;99.90;;;;;;4975421;28;20286;-89
2023/06/10 00:24:33;;;;;;;3.83;2.10;;;13.10;99.90;;;;;;4975868;28;20297;-88
2023/06/10 00:27:04;;;;;;;3.67;2.67;;;13.10;99.90;;;;;;4976388;28;20227;-89
2023/06/10 00:29:38;;;;;;;2.90;2.60;;;13.20;99.90;;;;;;4966614;28;20214;-89
2023/06/10 00:32:10;;;;;;;3.00;2.50;;;13.20;99.90;;;;;;4975192;28;20229;-89
2023/06/10 00:34:41;;;;;;;2.57;2.23;;;13.20;99.90;;;;;;4975013;28;20250;-88
2023/06/10 00:37:13;;;;;;;5.17;2.57;;;13.20;99.90;;;;;;4975765;28;20211;-89
2023/06/10 00:39:44;;;;;;;2.90;2.00;;;13.20;99.90;;;;;;4973871;28;20215;-89
2023/06/10 00:42:15;;;;;;;2.60;2.40;;;13.20;99.90;;;;;;4975537;28;20237;-89
2023/06/10 00:44:49;;;;;;;8.93;3.90;;;13.30;99.90;;;;;;4974654;28;20207;-89
2023/06/10 00:47:20;;;;;;;2.93;2.50;;;13.20;99.90;;;;;;4975351;28;20282;-89
2023/06/10 00:49:52;;;;;;;3.23;2.73;;;13.30;99.90;;;;;;4978589;28;20215;-89
2023/06/10 00:52:28;;;;;;;3.40;1.97;;;13.40;99.90;;;;;;4991223;28;20211;-88
2023/06/10 00:55:00;;;;;;;2.73;2.53;;;13.40;99.90;;;;;;4958232;28;20694;-85
2023/06/10 00:57:32;;;;;;;2.30;1.97;;;13.30;99.90;;;;;;4966002;28;20589;-86
2023/06/10 01:00:08;;;;;;;5.77;2.73;;;13.30;99.90;;;;;;4970515;28;20230;-87
2023/06/10 01:02:39;;;;;;;2.83;2.50;;;13.30;99.90;;;;;;4972454;28;20667;-90
2023/06/10 01:05:12;;;;;;;4.03;2.80;;;13.30;99.90;;;;;;4973379;28;20207;-89
2023/06/10 01:07:53;;;;;;;3.67;2.50;;;13.30;99.90;;;;;;4976860;28;20202;-92
2023/06/10 01:10:37;;;;;;;3.50;3.20;;;13.40;99.90;;;;;;4975482;28;20298;-89
2023/06/10 01:13:12;;;;;;;4.07;2.90;;;13.30;99.90;;;;;;4978883;28;20671;-89
2023/06/10 01:15:46;;;;;;;5.17;3.07;;;13.50;99.90;;;;;;4976001;28;20245;-90
2023/06/10 01:18:18;;;;;;;3.00;2.70;;;13.40;99.90;;;;;;4960885;28;20210;-90
2023/06/10 01:20:49;;;;;;;3.93;3.10;;;13.50;99.90;;;;;;4978029;28;20207;-90
2023/06/10 01:23:23;;;;;;;3.50;3.20;;;13.50;99.90;;;;;;4979149;28;20568;-89
2023/06/10 01:25:59;;;;;;;3.30;3.00;;;13.50;99.90;;;;;;4634020;28;10000085;-91
2023/06/10 01:28:36;;;;;;;2.73;2.53;;;13.60;99.90;;;;;;4976188;28;20211;-91
2023/06/10 01:31:15;;;;;;;3.97;2.83;;;13.60;99.90;;;;;;4971088;28;20281;-88
2023/06/10 01:33:49;;;;;;;4.60;3.03;;;13.60;99.90;;;;;;4974879;28;20293;-91
2023/06/10 01:36:21;;;;;;;4.90;3.13;;;13.60;99.90;;;;;;4992089;28;20246;-90
2023/06/10 01:38:55;;;;;;;3.60;3.30;;;13.50;99.90;;;;;;4965522;28;20248;-87
2023/06/10 01:41:27;;;;;;;4.13;2.97;;;13.40;99.90;;;;;;4969252;28;20297;-85
2023/06/10 01:43:58;;;;;;;4.80;3.20;;;13.50;99.90;;;;;;4975827;28;20217;-85
2023/06/10 01:46:29;;;;;;;3.57;3.27;;;13.50;99.90;;;;;;4962696;28;20226;-88
2023/06/10 01:49:01;;;;;;;4.70;3.17;;;13.50;99.90;;;;;;4969616;28;20316;-86
2023/06/10 01:51:32;;;;;;;4.17;3.23;;;13.40;99.90;;;;;;4987067;28;20215;-86
2023/06/10 01:54:06;;;;;;;3.40;3.00;;;13.20;99.90;;;;;;4993542;28;20191;-85
2023/06/10 01:56:36;;;;;;;3.93;3.53;;;13.10;99.90;;;;;;4977445;28;20298;-85
2023/06/10 01:59:08;;;;;;;4.53;3.40;;;13.20;99.90;;;;;;4976576;28;20237;-87
2023/06/10 02:01:38;;;;;;;4.13;3.40;;;13.30;99.90;;;;;;4978087;28;20215;-87
2023/06/10 02:04:09;;;;;;;4.70;3.70;;;13.40;99.90;;;;;;4971299;28;20199;-84
2023/06/10 02:06:41;;;;;;;4.43;3.67;;;13.40;99.90;;;;;;4974192;28;20314;-86
2023/06/10 02:09:14;;;;;;;4.20;3.80;;;13.40;99.90;;;;;;4969395;28;20214;-85
2023/06/10 02:11:45;;;;;;;4.23;3.20;;;13.30;99.90;;;;;;4971211;28;20219;-87
2023/06/10 02:14:16;;;;;;;3.93;3.30;;;13.30;99.90;;;;;;4973508;28;20214;-83
2023/06/10 02:16:47;;;;;;;3.67;3.37;;;13.30;99.90;;;;;;4974952;28;20269;-85
2023/06/10 02:19:21;;;;;;;7.93;3.50;;;13.40;99.90;;;;;;4972389;28;20206;-86
2023/06/10 02:21:52;;;;;;;4.10;3.40;;;13.40;99.90;;;;;;4971431;28;20218;-86
2023/06/10 02:24:24;;;;;;;4.57;3.10;;;13.40;99.90;;;;;;4975878;28;20206;-85
2023/06/10 02:26:56;;;;;;;6.30;3.97;;;13.40;99.90;;;;;;4976072;28;20211;-89
2023/06/10 02:29:27;;;;;;;3.13;2.73;;;13.40;99.90;;;;;;4975279;28;20214;-90
2023/06/10 02:31:58;;;;;;;3.60;3.00;;;13.40;99.90;;;;;;4976439;28;20237;-88
2023/06/10 02:34:29;;;;;;;3.37;3.13;;;13.40;99.90;;;;;;4974170;28;20246;-88
2023/06/10 02:37:02;;;;;;;2.90;2.60;;;13.30;99.90;;;;;;4986157;28;20322;-88
2023/06/10 02:39:36;;;;;;;5.03;2.67;;;13.40;99.90;;;;;;4975316;28;20218;-88
2023/06/10 02:42:08;;;;;;;3.33;2.90;;;13.30;99.90;;;;;;4973269;28;20214;-89
2023/06/10 02:44:39;;;;;;;3.97;2.93;;;13.20;99.90;;;;;;4966870;28;20520;-88
2023/06/10 02:47:10;;;;;;;3.30;3.00;;;13.30;99.90;;;;;;4975984;28;20209;-88
2023/06/10 02:49:41;;;;;;;4.10;3.03;;;13.30;99.90;;;;;;4975334;28;20229;-88
2023/06/10 02:52:13;;;;;;;3.00;2.80;;;13.30;99.90;;;;;;4976623;28;20299;-88
2023/06/10 02:54:46;;;;;;;3.00;2.70;;;13.30;99.90;;;;;;4970168;28;20570;-89
2023/06/10 02:57:17;;;;;;;3.00;2.77;;;13.40;99.90;;;;;;4975066;28;20214;-88
2023/06/10 02:59:51;;;;;;;3.37;2.60;;;13.20;99.90;;;;;;4968055;28;20295;-92
2023/06/10 03:02:28;;;;;;;4.47;2.50;;;13.10;99.90;;;;;;4972351;28;20220;-94
2023/06/10 03:04:59;;;;;;;2.80;2.60;;;13.10;99.90;;;;;;4979123;28;20557;-95
2023/06/10 03:07:30;;;;;;;3.03;2.73;;;13.10;99.90;;;;;;4982253;28;20219;-95
2023/06/10 03:10:04;;;;;;;4.43;3.07;;;13.00;99.90;;;;;;4991164;28;20269;-95
2023/06/10 03:12:36;;;;;;;10.47;3.07;;;13.00;99.90;;;;;;4977753;28;20214;-93
2023/06/10 03:15:09;;;;;;;3.30;2.63;;;13.10;99.90;;;;;;4985837;28;20268;-93
2023/06/10 03:17:42;;;;;;;3.30;2.80;;;13.10;99.90;;;;;;4976465;28;20237;-92
2023/06/10 03:20:15;;;;;;;2.60;2.40;;;13.10;99.90;;;;;;4986235;28;20210;-93
2023/06/10 03:22:46;;;;;;;3.43;2.70;;;13.10;99.90;;;;;;4978569;28;20211;-94
2023/06/10 03:25:20;;;;;;;5.03;2.77;;;13.10;99.90;;;;;;4961957;28;20215;-93
2023/06/10 03:27:54;;;;;;;5.30;2.67;;;13.10;99.90;;;;;;4963228;28;20237;-93
2023/06/10 03:30:26;;;;;;;4.33;2.87;;;13.10;99.90;;;;;;4966262;28;21316;-95
2023/06/10 03:32:58;;;;;;;5.60;2.80;;;13.10;99.90;;;;;;4974278;28;20301;-94
2023/06/10 03:35:29;;;;;;;2.93;2.73;;;13.10;99.90;;;;;;4973098;28;20254;-93
2023/06/10 03:38:01;;;;;;;2.73;2.53;;;12.90;99.90;;;;;;4976358;28;20759;-94
2023/06/10 03:40:36;;;;;;;3.00;2.70;;;13.00;99.90;;;;;;4979059;28;20214;-94
2023/06/10 03:43:09;;;;;;;3.50;3.20;;;13.00;99.90;;;;;;4976104;28;20202;-94
2023/06/10 03:45:45;;;;;;;3.30;3.00;;;13.00;99.90;;;;;;4976274;28;20297;-96
2023/06/10 03:48:17;;;;;;;4.53;2.90;;;12.90;99.90;;;;;;4977438;28;20202;-96
2023/06/10 03:56:34;;;;;;;6.63;2.90;;;13.10;99.90;;;;;;4988244;28;20235;-96
2023/06/10 03:59:07;;;;;;;3.17;2.97;;;13.00;99.90;;;;;;4982030;28;20615;-96
2023/06/10 04:01:41;;;;;;;3.00;2.80;;;13.00;99.90;;;;;;4984946;28;20278;-96
2023/06/10 04:04:16;;;;;;;3.10;2.80;;;13.00;99.90;;;;;;4992808;28;20210;-96
2023/06/10 04:06:48;;;;;;;3.13;2.83;;;13.00;99.90;;;;;;4997082;28;20198;-95
2023/06/10 04:09:21;;;;;;;4.20;3.37;;;13.00;99.90;;;;;;4991389;28;20195;-95
2023/06/10 04:11:55;;;;;;;4.00;2.83;;;12.90;99.90;;;;;;4984006;28;20665;-94
2023/06/10 04:17:25;;;;;;;3.10;2.80;;;12.90;99.90;;;;;;4987375;28;20322;-95
2023/06/10 04:20:01;;;;;;;4.73;3.43;;;12.80;99.90;;;;;;4994453;28;20225;-96
2023/06/10 04:22:36;;;;;;;4.97;3.30;;;12.70;99.90;;;;;;4979144;28;20282;-96
2023/06/10 04:25:08;;;;;;;4.47;3.30;;;12.80;99.90;;;;;;4987226;28;20298;-92
2023/06/10 04:27:42;;;;;;;3.27;2.73;;;12.90;99.90;;;;;;4978553;28;20231;-95
2023/06/10 04:30:15;;;;;;;3.63;2.90;;;12.70;99.90;;;;;;4970130;28;20723;-96
2023/06/10 04:32:47;;;;;;;3.70;2.90;;;12.70;99.90;;;;;;4980815;28;20651;-95
2023/06/10 04:35:22;;;;;;;4.10;2.97;;;12.60;99.90;;;;;;4960017;28;20656;-95
2023/06/10 04:37:53;;;;;;;3.13;2.83;;;12.60;99.90;;;;;;4977925;28;20571;-95
2023/06/10 04:40:25;;;;;;;3.53;2.77;;;12.50;99.90;;;;;;4980789;28;20738;-94
2023/06/10 04:43:00;;;;;;;5.07;2.80;;;12.50;99.90;;;;;;4983153;28;20603;-94
2023/06/10 04:45:31;;;;;;;3.80;2.77;;;12.50;99.90;;;;;;4982663;28;20217;-94
2023/06/10 04:48:03;;;;;;;3.07;2.83;;;12.50;99.90;;;;;;4981582;28;20226;-94
2023/06/10 04:50:35;;;;;;;3.17;2.87;;;12.50;99.90;;;;;;5000474;28;20225;-94
2023/06/10 04:53:08;;;;;;;5.70;3.23;;;12.50;99.90;;;;;;4982493;28;20249;-94
2023/06/10 04:55:40;;;;;;;3.80;2.97;;;12.50;99.90;;;;;;4966442;28;20206;-94
2023/06/10 04:58:15;;;;;;;3.53;3.03;;;12.50;99.90;;;;;;4979971;28;20219;-94
2023/06/10 05:00:47;;;;;;;5.90;3.43;;;12.50;99.90;;;;;;4979791;28;20209;-94
2023/06/10 05:03:18;;;;;;;3.87;3.07;;;12.50;99.90;;;;;;4980834;28;20211;-95
2023/06/10 05:05:55;;;;;;;4.73;2.83;;;12.50;99.90;;;;;;4989507;28;20199;-96
2023/06/10 05:08:29;;;;;;;3.77;3.33;;;12.50;99.90;;;;;;4988663;28;20225;-95
2023/06/10 05:11:04;;;;;;;3.50;3.20;;;12.50;99.90;;;;;;4992950;28;20221;-95
2023/06/10 05:13:39;;;;;;;3.57;3.17;;;12.40;99.90;;;;;;4989649;28;20241;-96
2023/06/10 05:16:12;;;;;;;3.40;3.10;;;12.50;99.90;;;;;;4981407;28;20294;-95
2023/06/10 05:18:45;;;;;;;3.83;3.40;;;12.50;99.90;;;;;;4990701;28;20215;-95
2023/06/10 05:21:18;;;;;;;3.30;2.83;;;12.40;99.90;;;;;;4991218;28;20205;-95
2023/06/10 05:23:49;;;;;;;3.50;3.20;;;12.40;99.90;;;;;;4973551;28;20615;-96
2023/06/10 05:26:20;;;;;;;2.97;2.67;;;12.40;99.90;;;;;;5004972;28;20198;-95
2023/06/10 05:28:54;;;;;;;2.83;2.63;;;12.50;99.90;;;;;;4998262;28;20274;-95
2023/06/10 05:31:25;;;;;;;4.50;3.07;;;12.50;99.90;;;;;;4981209;28;20261;-95
2023/06/10 05:33:57;;;;;;;3.43;3.13;;;12.50;99.90;;;;;;4997393;28;20207;-95
2023/06/10 05:36:32;;;;;;;4.13;3.60;;;12.50;99.90;;;;;;4979055;28;20231;-96
2023/06/10 05:39:03;;;;;;;4.47;3.20;;;12.60;99.90;;;;;;4996817;28;20261;-95
2023/06/10 05:41:36;;;;;;;4.50;3.43;;;12.60;99.90;;;;;;4999949;28;20258;-96
2023/06/10 05:44:11;;;;;;;4.33;3.60;;;12.60;99.90;;;;;;4983851;28;20188;-94
2023/06/10 05:46:44;;;;;;;4.20;3.87;;;12.60;99.90;;;;;;4984205;28;20206;-95
2023/06/10 05:49:16;;;;;;;4.37;3.97;;;12.60;99.90;;;;;;4971202;28;20219;-89
2023/06/10 05:51:50;;;;;;;5.03;4.63;;;12.60;99.90;;;;;;4988550;28;20225;-90
2023/06/10 05:54:21;;;;;;;4.57;4.00;;;12.70;99.90;;;;;;4991277;28;20268;-91
2023/06/10 05:56:53;;;;;;;6.13;4.50;;;12.70;99.90;;;;;;4950265;28;20231;-90
2023/06/10 05:59:26;;;;;;;7.50;6.70;;;12.80;99.90;;;;;;4982305;28;20210;-90
2023/06/10 06:01:58;;;;;;;9.30;8.40;;;12.70;99.90;;;;;;4982857;28;20206;-90
2023/06/10 06:04:30;;;;;;;8.57;7.77;;;12.70;99.90;;;;;;4978352;28;20222;-91
2023/06/10 06:07:01;;;;;;;11.00;8.60;;;12.60;99.90;;;;;;4961487;28;20242;-86
2023/06/10 06:09:32;;;;;;;11.13;8.77;;;12.70;99.90;;;;;;4972531;28;20306;-92
2023/06/10 06:12:04;;;;;;;10.13;8.73;;;12.70;99.90;;;;;;4979666;28;20629;-93
2023/06/10 06:14:41;;;;;;;9.27;8.37;;;12.70;99.90;;;;;;4982140;28;20283;-93
2023/06/10 06:17:12;;;;;;;9.57;8.60;;;12.70;99.90;;;;;;4995678;28;20241;-95
2023/06/10 06:19:43;;;;;;;9.63;8.73;;;12.70;99.90;;;;;;4990982;28;20298;-96
2023/06/10 06:22:15;;;;;;;9.87;8.87;;;12.70;99.90;;;;;;4983834;28;20303;-93
2023/06/10 06:24:46;;;;;;;9.90;8.90;;;12.70;99.90;;;;;;4963473;28;20205;-94
2023/06/10 06:27:18;;;;;;;9.63;8.73;;;12.70;99.90;;;;;;4981130;28;20215;-94
2023/06/10 06:29:53;;;;;;;9.47;8.20;;;12.70;99.90;;;;;;4979718;28;20203;-93
2023/06/10 06:32:29;;;;;;;10.13;9.07;;;12.70;99.90;;;;;;4979775;28;20671;-94
2023/06/10 06:35:00;;;;;;;9.70;8.60;;;12.80;99.90;;;;;;4970638;28;20219;-92
2023/06/10 06:37:32;;;;;;;9.47;8.47;;;12.70;99.90;;;;;;4969116;28;20601;-94
2023/06/10 06:40:04;;;;;;;9.43;8.53;;;12.70;99.90;;;;;;4968443;28;20217;-94
2023/06/10 06:42:36;;;;;;;9.60;8.13;;;12.80;99.90;;;;;;4971251;28;20215;-94
2023/06/10 06:45:11;;;;;;;8.83;7.90;;;12.70;99.90;;;;;;4968796;28;20211;-95
2023/06/10 06:47:43;;;;;;;8.53;7.63;;;12.70;99.90;;;;;;4978377;28;20218;-96
2023/06/10 06:50:16;;;;;;;9.23;7.73;;;12.60;99.90;;;;;;4967389;28;20270;-93
2023/06/10 06:52:47;;;;;;;9.83;7.97;;;12.70;99.90;;;;;;4986459;28;20269;-95
2023/06/10 06:55:19;;;;;;;7.90;7.10;;;12.70;99.90;;;;;;4979182;28;20329;-94
2023/06/10 06:57:53;;;;;;;8.23;7.50;;;12.70;99.90;;;;;;4979361;28;20238;-94
2023/06/10 07:00:27;;;;;;;9.73;8.00;;;12.70;99.90;;;;;;4979363;28;20210;-95
2023/06/10 07:02:59;;;;;;;8.53;7.40;;;12.60;99.90;;;;;;4994827;28;20248;-95
2023/06/10 07:05:31;;;;;;;8.13;7.13;;;12.70;99.90;;;;;;4991891;28;20241;-93
2023/06/10 07:08:06;;;;;;;7.70;6.57;;;12.60;99.90;;;;;;4987913;28;20218;-94
2023/06/10 07:10:43;;;;;;;8.27;6.83;;;12.60;99.90;;;;;;4975483;28;20291;-94
2023/06/10 07:13:15;;;;;;;7.30;6.27;;;12.50;99.90;;;;;;4978168;28;20671;-94
2023/06/10 07:15:49;;;;;;;8.03;6.00;;;12.60;99.90;;;;;;4977859;28;20207;-94
2023/06/10 07:18:21;;;;;;;6.27;5.53;;;12.50;99.90;;;;;;4986177;28;20261;-93
2023/06/10 07:20:55;;;;;;;7.27;5.80;;;12.50;99.90;;;;;;4978962;28;20211;-93
2023/06/10 07:23:26;;;;;;;5.93;5.43;;;12.50;99.90;;;;;;4975666;28;20221;-95
2023/06/10 07:25:58;;;;;;;6.47;5.47;;;12.50;99.90;;;;;;4980971;28;20214;-93
2023/06/10 07:28:30;;;;;;;5.60;5.10;;;12.60;99.90;;;;;;4978448;28;20218;-93
2023/06/10 07:31:05;;;;;;;9.07;5.57;;;12.50;99.90;;;;;;4977222;28;20219;-95
2023/06/10 07:33:39;;;;;;;6.50;5.40;;;12.50;99.90;;;;;;4978493;28;20222;-95
2023/06/10 07:36:11;;;;;;;9.53;6.87;;;12.60;99.90;;;;;;4976387;28;20234;-96
2023/06/10 07:38:45;;;;;;;9.37;5.73;;;12.50;99.90;;;;;;4991378;28;20617;-95
2023/06/10 07:41:17;;;;;;;12.37;7.30;;;12.50;99.90;;;;;;4965696;28;20546;-93
2023/06/10 07:43:54;;;;;;;8.43;6.47;;;12.50;99.90;;;;;;4973681;28;20214;-93
2023/06/10 07:46:28;;;;;;;14.00;7.10;;;12.50;99.90;;;;;;4977844;28;20221;-94
2023/06/10 07:48:59;;;;;;;8.40;6.87;;;12.30;99.90;;;;;;4975902;28;20238;-94
2023/06/10 07:51:31;;;;;;;7.03;6.43;;;12.30;99.90;;;;;;4976555;28;20215;-93
2023/06/10 07:54:03;;;;;;;8.80;6.70;;;12.20;99.90;;;;;;4975824;28;20238;-93
2023/06/10 07:56:34;;;;;;;8.83;7.47;;;12.20;99.90;;;;;;4995910;28;20642;-92
2023/06/10 07:59:06;;;;;;;8.97;6.70;;;12.30;99.90;;;;;;4995311;28;20234;-94
2023/06/10 08:01:39;;;;;;;9.70;7.00;;;12.30;99.90;;;;;;4982654;28;20207;-94
2023/06/10 08:04:11;;;;;;;11.73;7.60;;;12.30;99.90;;;;;;4986804;28;20325;-93
2023/06/10 08:06:44;;;;;;;12.10;7.73;;;12.30;99.90;;;;;;4987315;28;20217;-94
2023/06/10 08:09:15;;;;;;;8.73;7.83;;;12.30;99.90;;;;;;4959983;28;20211;-93
2023/06/10 08:11:49;;;;;;;10.70;8.03;;;12.30;99.90;;;;;;4977939;28;20203;-93
2023/06/10 08:14:21;;;;;;;9.17;7.40;;;12.20;99.90;;;;;;4977167;28;20656;-93
2023/06/10 08:16:54;;;;;;;9.93;8.23;;;12.20;99.90;;;;;;4978212;28;20217;-94
2023/06/10 08:19:26;;;;;;;11.60;8.20;;;12.20;99.90;;;;;;4977996;28;20246;-92
2023/06/10 08:21:58;;;;;;;9.83;8.70;;;12.30;99.90;;;;;;4993011;28;20230;-93
2023/06/10 08:24:30;;;;;;;10.73;8.60;;;12.20;99.90;;;;;;4997888;28;20223;-94
2023/06/10 08:27:02;;;;;;;11.37;8.80;;;12.20;99.90;;;;;;4996985;28;20183;-93
2023/06/10 08:29:33;;;;;;;10.50;9.17;;;12.20;99.90;;;;;;4994910;28;20230;-94
2023/06/10 08:32:08;;;;;;;8.80;7.90;;;12.30;99.90;;;;;;4987622;28;20294;-93
2023/06/10 08:34:40;;;;;;;10.77;8.00;;;12.30;99.90;;;;;;4978072;28;20211;-95
2023/06/10 08:37:11;;;;;;;10.07;8.03;;;12.30;99.90;;;;;;4961955;28;20217;-94
2023/06/10 08:39:46;;;;;;;7.97;7.13;;;12.30;99.90;;;;;;4982969;28;20246;-93
2023/06/10 08:42:25;;;;;;;7.53;6.20;;;12.30;99.90;;;;;;4988678;28;20238;-92
2023/06/10 08:44:58;;;;;;;7.73;6.70;;;12.30;99.90;;;;;;4978012;28;20278;-94
2023/06/10 08:47:41;;;;;;;8.73;7.60;;;12.30;99.90;;;;;;4990400;28;20222;-93
2023/06/10 08:50:13;;;;;;;7.30;6.70;;;12.30;99.90;;;;;;4995600;28;20215;-94
2023/06/10 08:52:46;;;;;;;7.67;6.87;;;12.40;99.90;;;;;;4994898;28;20228;-94
2023/06/10 08:55:25;;;;;;;7.67;6.43;;;12.30;99.90;;;;;;4994589;28;20223;-94
2023/06/10 08:58:02;;;;;;;10.87;7.43;;;12.20;99.90;;;;;;4991641;28;20721;-94
2023/06/10 09:00:35;;;;;;;7.40;6.50;;;12.20;99.90;;;;;;5000171;28;20281;-95
2023/06/10 09:03:09;;;;;;;7.40;6.60;;;12.20;99.90;;;;;;4997761;28;20202;-94
2023/06/10 09:05:40;;;;;;;6.90;6.20;;;12.30;99.90;;;;;;4995521;28;20233;-93
2023/06/10 09:08:13;;;;;;;7.27;6.23;;;12.20;99.90;;;;;;4995096;28;20214;-93
2023/06/10 09:10:44;;;;;;;6.20;5.60;;;12.20;99.90;;;;;;4985501;28;20736;-93
2023/06/10 09:13:18;;;;;;;7.23;6.50;;;12.20;99.90;;;;;;4975908;28;20613;-94
2023/06/10 09:15:51;;;;;;;6.37;5.77;;;12.10;99.90;;;;;;4976473;28;20294;-93
2023/06/10 09:18:24;;;;;;;5.90;5.33;;;12.10;99.90;;;;;;4971975;28;20243;-94
2023/06/10 09:20:56;;;;;;;6.40;5.70;;;12.10;99.90;;;;;;4958112;29;20307;-95
2023/06/10 09:23:29;;;;;;;6.80;6.10;;;12.10;99.90;;;;;;4977039;28;20219;-92
2023/06/10 09:26:01;;;;;;;6.30;5.30;;;12.10;99.90;;;;;;4975726;28;20211;-93
2023/06/10 09:28:35;;;;;;;6.90;5.10;;;12.10;99.90;;;;;;4979521;28;20215;-93
2023/06/10 09:31:11;;;;;;;5.37;4.87;;;12.10;99.90;;;;;;4980502;28;20211;-95
2023/06/10 09:33:44;;;;;;;5.70;5.10;;;12.20;99.90;;;;;;4979146;28;20226;-94
2023/06/10 09:36:24;;;;;;;5.23;4.77;;;12.10;99.90;;;;;;4979921;28;20619;-93
2023/06/10 09:38:59;;;;;;;5.87;4.83;;;12.20;99.90;;;;;;4971647;28;20678;-94
2023/06/10 09:41:35;;;;;;;5.40;4.90;;;12.30;99.90;;;;;;4984600;28;20228;-93
2023/06/10 09:44:14;;;;;;;5.57;4.97;;;12.30;99.90;;;;;;4998899;28;20206;-94
2023/06/10 09:46:49;;;;;;;4.87;4.37;;;12.20;99.90;;;;;;4963543;29;20218;-94
2023/06/10 09:49:22;;;;;;;5.00;4.50;;;12.30;99.90;;;;;;4965565;28;20207;-93
2023/06/10 09:51:55;;;;;;;4.00;3.60;;;12.30;99.90;;;;;;4980754;28;20785;-94
2023/06/10 09:54:34;;;;;;;4.40;4.00;;;12.40;99.90;;;;;;4980397;28;20214;-94
2023/06/10 09:57:10;;;;;;;4.50;3.40;;;12.40;99.90;;;;;;4980348;28;20668;-94
2023/06/10 09:59:45;;;;;;;5.23;4.20;;;12.20;99.90;;;;;;4992625;28;20233;-92
2023/06/10 10:02:21;;;;;;;3.93;3.57;;;12.20;99.90;;;;;;4980156;28;20206;-93
2023/06/10 10:04:55;;;;;;;4.87;3.80;;;12.30;99.90;;;;;;4980421;28;20294;-94
2023/06/10 10:07:27;;;;;;;4.70;4.27;;;12.40;99.90;;;;;;4982759;28;20217;-93
2023/06/10 10:09:59;;;;;;;4.30;3.90;;;12.40;99.90;;;;;;4968255;28;20247;-92
2023/06/10 10:12:31;;;;;;;4.80;4.17;;;12.40;99.90;;;;;;4979230;28;20211;-93
2023/06/10 10:15:04;;;;;;;3.97;3.67;;;12.30;99.90;;;;;;4979509;28;20214;-94
2023/06/10 10:17:39;;;;;;;4.70;4.30;;;12.40;99.90;;;;;;4980146;28;20218;-92
2023/06/10 10:20:19;;;;;;;4.43;3.80;;;12.40;99.90;;;;;;4979446;28;20289;-94
2023/06/10 10:22:54;;;;;;;5.30;4.20;;;12.30;99.90;;;;;;4979299;28;20209;-94
2023/06/10 10:25:29;;;;;;;3.80;3.37;;;12.30;99.90;;;;;;4978794;28;20210;-93
2023/06/10 10:28:07;;;;;;;4.10;3.70;;;12.20;99.90;;;;;;4986950;28;20215;-93
2023/06/10 10:30:42;;;;;;;4.27;3.63;;;12.20;99.90;;;;;;5000378;28;20206;-94
2023/06/10 10:33:22;;;;;;;3.60;3.27;;;12.20;99.90;;;;;;4996310;28;20195;-94
2023/06/10 10:35:56;;;;;;;3.53;3.10;;;12.20;99.90;;;;;;4994402;28;20199;-94
2023/06/10 10:38:30;;;;;;;3.47;3.10;;;12.20;99.90;;;;;;4994257;28;20293;-95
2023/06/10 10:41:02;;;;;;;3.40;3.00;;;12.10;99.90;;;;;;4979438;28;20222;-95
2023/06/10 10:43:34;;;;;;;3.17;2.87;;;12.20;99.90;;;;;;4980487;28;20211;-93
2023/06/10 10:46:10;;;;;;;3.00;2.70;;;12.20;99.90;;;;;;4961505;28;20231;-93
2023/06/10 10:48:42;;;;;;;2.43;2.20;;;12.30;99.90;;;;;;4978585;28;20711;-94
2023/06/10 10:51:18;;;;;;;2.40;2.20;;;12.20;99.90;;;;;;4980269;28;20294;-94
2023/06/10 10:54:15;;;;;;;2.80;2.60;;;12.10;99.90;;;;;;4976043;28;20211;-96
2023/06/10 10:57:14;;;;;;;3.70;2.70;;;12.10;99.90;;;;;;4979233;28;20218;-94
2023/06/10 10:59:56;;;;;;;2.60;2.40;;;12.10;99.90;;;;;;4977857;28;20249;-94
2023/06/10 11:02:40;;;;;;;2.80;2.60;;;12.00;99.90;;;;;;4976107;28;20297;-92
2023/06/10 11:05:13;;;;;;;3.10;2.87;;;12.10;99.90;;;;;;4978564;28;20215;-93
2023/06/10 11:07:56;;;;;;;3.23;2.73;;;12.10;99.90;;;;;;4978452;28;20213;-92
2023/06/10 11:10:34;;;;;;;2.70;2.50;;;12.10;99.90;;;;;;4978846;28;20631;-94
2023/06/10 11:13:12;;;;;;;2.60;2.40;;;12.10;99.90;;;;;;4979051;28;20253;-93
2023/06/10 11:15:49;;;;;;;2.80;2.60;;;12.00;99.90;;;;;;4976452;28;20221;-91
2023/06/10 11:18:25;;;;;;;3.03;2.50;;;12.00;99.90;;;;;;4982531;28;20202;-92
2023/06/10 11:21:00;;;;;;;4.33;2.60;;;12.10;99.90;;;;;;4991745;28;20630;-92
2023/06/10 11:23:43;;;;;;;2.50;2.30;;;12.20;99.90;;;;;;4977577;28;20210;-94
2023/06/10 11:26:35;;;;;;;4.20;2.70;;;12.20;99.90;;;;;;4978057;28;20218;-94
2023/06/10 11:29:14;;;;;;;2.50;2.30;;;12.20;99.90;;;;;;4977529;28;20304;-94
2023/06/10 11:31:47;;;;;;;1.80;1.70;;;12.20;99.90;;;;;;4977403;28;20221;-94
2023/06/10 11:34:26;;;;;;;3.40;2.10;;;12.10;99.90;;;;;;4977331;28;20210;-93
2023/06/10 11:36:59;;;;;;;2.27;1.80;;;11.90;99.90;;;;;;4971786;28;20203;-95
2023/06/10 11:39:33;;;;;;;2.17;1.97;;;11.90;99.90;;;;;;4958977;28;20592;-93
2023/06/10 11:42:06;;;;;;;2.20;2.00;;;11.90;99.90;;;;;;4977912;28;20211;-95
2023/06/10 11:44:38;;;;;;;2.97;2.27;;;11.90;99.90;;;;;;4978516;28;20281;-94
2023/06/10 11:47:12;;;;;;;2.40;2.17;;;11.90;99.90;;;;;;4978149;28;20213;-94
2023/06/10 11:49:44;;;;;;;2.77;2.40;;;11.90;99.90;;;;;;4978042;28;20207;-94
2023/06/10 11:52:19;;;;;;;2.50;2.30;;;11.90;99.90;;;;;;4977429;28;20214;-94
2023/06/10 11:54:58;;;;;;;2.50;2.30;;;11.90;99.90;;;;;;4992761;28;20265;-94
2023/06/10 11:57:29;;;;;;;3.67;2.27;;;11.90;99.90;;;;;;4974343;28;20214;-94
2023/06/10 12:00:07;;;;;;;3.63;2.80;;;12.00;99.90;;;;;;4977322;28;20243;-93
2023/06/10 12:02:39;;;;;;;3.33;2.73;;;12.00;99.90;;;;;;4982262;28;20206;-94
2023/06/10 12:05:15;;;;;;;3.33;2.97;;;11.90;99.90;;;;;;4994382;28;20210;-93
2023/06/10 12:07:47;;;;;;;2.90;2.70;;;11.90;99.90;;;;;;4959010;28;20302;-93
2023/06/10 12:10:22;;;;;;;3.90;2.80;;;11.80;99.90;;;;;;4944525;28;20293;-93
2023/06/10 12:12:56;;;;;;;4.00;3.60;;;11.80;99.90;;;;;;4976761;28;20229;-93
2023/06/10 12:15:28;;;;;;;3.23;2.93;;;11.80;99.90;;;;;;4976254;28;20207;-93
2023/06/10 12:18:01;;;;;;;4.90;3.07;;;11.70;99.90;;;;;;4976592;28;20211;-93
2023/06/10 12:20:34;;;;;;;3.57;3.03;;;11.70;99.90;;;;;;4976732;28;20249;-93
2023/06/10 12:23:12;;;;;;;4.83;3.33;;;11.70;99.90;;;;;;4953667;28;20207;-94
2023/06/10 12:25:53;;;;;;;4.30;3.30;;;11.60;99.90;;;;;;4968062;28;20210;-92
2023/06/10 12:28:25;;;;;;;4.63;3.50;;;11.60;99.90;;;;;;4975845;28;20219;-93
2023/06/10 12:31:09;;;;;;;4.90;3.40;;;11.60;99.90;;;;;;4965434;28;20226;-95
2023/06/10 12:33:43;;;;;;;3.47;3.17;;;11.70;99.90;;;;;;4956923;29;20219;-93
2023/06/10 12:36:21;;;;;;;4.27;3.20;;;11.70;99.90;;;;;;4960252;29;20215;-94
2023/06/10 12:38:53;;;;;;;3.77;3.43;;;11.70;99.90;;;;;;4989116;28;20205;-94
2023/06/10 12:41:27;;;;;;;4.27;3.50;;;11.80;99.90;;;;;;4974976;28;20265;-94
2023/06/10 12:43:59;;;;;;;8.00;3.80;;;11.80;99.90;;;;;;4961861;28;20204;-94
2023/06/10 12:46:39;;;;;;;4.00;3.50;;;11.80;99.90;;;;;;4975469;28;20207;-94
2023/06/10 12:49:20;;;;;;;4.70;3.63;;;11.80;99.90;;;;;;4976079;28;20285;-95
2023/06/10 12:51:52;;;;;;;3.80;3.50;;;11.80;99.90;;;;;;4970080;28;20211;-94
2023/06/10 12:54:23;;;;;;;6.43;3.50;;;11.90;99.90;;;;;;4976323;28;20214;-96
2023/06/10 12:56:57;;;;;;;4.57;3.83;;;11.90;99.90;;;;;;4977034;28;20315;-96
2023/06/10 12:59:29;;;;;;;4.30;3.87;;;11.70;99.90;;;;;;4975474;28;20214;-94
2023/06/10 13:02:01;;;;;;;4.53;4.13;;;11.70;99.90;;;;;;4973152;28;20237;-94
2023/06/10 13:04:32;;;;;;;4.63;4.23;;;11.70;99.90;;;;;;4985510;28;20213;-95
2023/06/10 13:07:04;;;;;;;5.00;4.50;;;11.70;99.90;;;;;;4984914;28;20290;-93
2023/06/10 13:09:36;;;;;;;5.10;4.63;;;11.70;99.90;;;;;;4959258;28;20214;-94
2023/06/10 13:12:12;;;;;;;5.23;4.73;;;11.70;99.90;;;;;;4974797;28;20216;-93
2023/06/10 13:14:45;;;;;;;5.00;4.50;;;11.70;99.90;;;;;;4992917;28;20226;-94
2023/06/10 13:17:17;;;;;;;5.67;4.97;;;11.70;99.90;;;;;;4975193;28;20219;-94
2023/06/10 13:19:49;;;;;;;9.47;5.47;;;11.70;99.90;;;;;;4971232;28;20208;-93
2023/06/10 13:22:21;;;;;;;5.67;5.13;;;11.70;99.90;;;;;;4974278;28;20266;-92
2023/06/10 13:24:53;;;;;;;5.20;4.73;;;11.60;99.90;;;;;;4978663;28;20207;-94
2023/06/10 13:27:26;;;;;;;5.73;5.23;;;11.60;99.90;;;;;;4979436;28;20239;-93